sensor_id;sensor_type;location;lat;lon;timestamp;temperature;humidity
41447;DHT22;27185;52.040;4.490;2023-09-18T00:01:07;20.70;99.90
41447;DHT22;27185;52.040;4.490;2023-09-18T00:03:53;20.70;99.90
41447;DHT22;27185;52.040;4.490;2023-09-18T00:06:39;20.70;99.90
41447;DHT22;27185;52.040;4.490;2023-09-18T00:09:25;20.70;99.90
41447;DHT22;27185;52.040;4.490;2023-09-18T00:12:10;20.70;99.90
41447;DHT22;27185;52.040;4.490;2023-09-18T00:14:56;20.70;99.90
41447;DHT22;27185;52.040;4.490;2023-09-18T00:17:41;20.80;99.90
41447;DHT22;27185;52.040;4.490;2023-09-18T00:20:27;20.80;99.90
41447;DHT22;27185;52.040;4.490;2023-09-18T00:23:14;20.80;99.90
41447;DHT22;27185;52.040;4.490;2023-09-18T00:26:02;20.80;99.90
41447;DHT22;27185;52.040;4.490;2023-09-18T00:28:48;20.80;99.90
41447;DHT22;27185;52.040;4.490;2023-09-18T00:31:34;20.80;99.90
41447;DHT22;27185;52.040;4.490;2023-09-18T00:34:20;20.80;99.90
41447;DHT22;27185;52.040;4.490;2023-09-18T00:37:06;20.80;99.90
41447;DHT22;27185;52.040;4.490;2023-09-18T00:39:51;20.80;99.90
41447;DHT22;27185;52.040;4.490;2023-09-18T00:42:38;20.80;99.90
41447;DHT22;27185;52.040;4.490;2023-09-18T00:45:24;20.90;99.90
41447;DHT22;27185;52.040;4.490;2023-09-18T00:48:11;20.80;99.90
41447;DHT22;27185;52.040;4.490;2023-09-18T00:50:57;20.80;99.90
41447;DHT22;27185;52.040;4.490;2023-09-18T00:53:45;20.80;99.90
41447;DHT22;27185;52.040;4.490;2023-09-18T00:56:34;20.80;99.90
41447;DHT22;27185;52.040;4.490;2023-09-18T00:59:20;20.80;99.90
41447;DHT22;27185;52.040;4.490;2023-09-18T01:02:07;20.80;99.90
41447;DHT22;27185;52.040;4.490;2023-09-18T01:04:54;20.80;99.90
41447;DHT22;27185;52.040;4.490;2023-09-18T01:07:41;20.80;99.90
41447;DHT22;27185;52.040;4.490;2023-09-18T01:10:34;20.80;99.90
41447;DHT22;27185;52.040;4.490;2023-09-18T01:13:25;20.80;99.90
41447;DHT22;27185;52.040;4.490;2023-09-18T01:16:19;20.80;99.90
41447;DHT22;27185;52.040;4.490;2023-09-18T01:19:08;20.80;99.90
41447;DHT22;27185;52.040;4.490;2023-09-18T01:21:54;20.80;99.90
41447;DHT22;27185;52.040;4.490;2023-09-18T01:24:40;20.80;99.90
41447;DHT22;27185;52.040;4.490;2023-09-18T01:27:27;20.80;99.90
41447;DHT22;27185;52.040;4.490;2023-09-18T01:30:12;20.80;99.90
41447;DHT22;27185;52.040;4.490;2023-09-18T01:32:59;20.80;99.90
41447;DHT22;27185;52.040;4.490;2023-09-18T01:35:45;20.80;99.90
41447;DHT22;27185;52.040;4.490;2023-09-18T01:38:34;20.90;99.90
41447;DHT22;27185;52.040;4.490;2023-09-18T01:41:21;20.90;99.90
41447;DHT22;27185;52.040;4.490;2023-09-18T01:44:06;20.90;99.90
41447;DHT22;27185;52.040;4.490;2023-09-18T01:46:52;20.90;99.90
41447;DHT22;27185;52.040;4.490;2023-09-18T01:49:41;20.90;99.90
41447;DHT22;27185;52.040;4.490;2023-09-18T01:52:27;20.90;99.90
41447;DHT22;27185;52.040;4.490;2023-09-18T01:55:13;20.90;99.90
41447;DHT22;27185;52.040;4.490;2023-09-18T01:57:59;20.90;99.90
41447;DHT22;27185;52.040;4.490;2023-09-18T02:00:45;20.90;99.90
41447;DHT22;27185;52.040;4.490;2023-09-18T02:03:31;20.90;99.90
41447;DHT22;27185;52.040;4.490;2023-09-18T02:06:16;21.00;99.90
41447;DHT22;27185;52.040;4.490;2023-09-18T02:09:03;21.00;99.90
41447;DHT22;27185;52.040;4.490;2023-09-18T02:11:54;21.00;99.90
41447;DHT22;27185;52.040;4.490;2023-09-18T02:14:39;21.00;99.90
41447;DHT22;27185;52.040;4.490;2023-09-18T02:17:25;21.10;99.90
41447;DHT22;27185;52.040;4.490;2023-09-18T02:20:11;21.10;99.90
41447;DHT22;27185;52.040;4.490;2023-09-18T02:22:57;21.10;99.90
41447;DHT22;27185;52.040;4.490;2023-09-18T02:25:42;21.20;99.90
41447;DHT22;27185;52.040;4.490;2023-09-18T02:28:28;21.20;99.90
41447;DHT22;27185;52.040;4.490;2023-09-18T02:31:14;21.20;99.90
41447;DHT22;27185;52.040;4.490;2023-09-18T02:33:59;21.30;99.90
41447;DHT22;27185;52.040;4.490;2023-09-18T02:36:45;21.20;99.90
41447;DHT22;27185;52.040;4.490;2023-09-18T02:39:31;21.30;99.90
41447;DHT22;27185;52.040;4.490;2023-09-18T02:42:17;21.20;99.90
41447;DHT22;27185;52.040;4.490;2023-09-18T02:45:03;21.20;99.90
41447;DHT22;27185;52.040;4.490;2023-09-18T02:47:48;21.20;99.90
41447;DHT22;27185;52.040;4.490;2023-09-18T02:50:34;21.30;99.90
41447;DHT22;27185;52.040;4.490;2023-09-18T02:53:24;21.20;99.90
41447;DHT22;27185;52.040;4.490;2023-09-18T02:56:12;21.20;99.90
41447;DHT22;27185;52.040;4.490;2023-09-18T02:59:08;21.20;99.90
41447;DHT22;27185;52.040;4.490;2023-09-18T03:01:54;21.20;99.90
41447;DHT22;27185;52.040;4.490;2023-09-18T03:04:39;21.20;99.90
41447;DHT22;27185;52.040;4.490;2023-09-18T03:07:25;21.20;99.90
41447;DHT22;27185;52.040;4.490;2023-09-18T03:10:15;21.20;99.90
41447;DHT22;27185;52.040;4.490;2023-09-18T03:13:02;21.20;99.90
41447;DHT22;27185;52.040;4.490;2023-09-18T03:15:48;21.20;99.90
41447;DHT22;27185;52.040;4.490;2023-09-18T03:18:34;21.20;99.90
41447;DHT22;27185;52.040;4.490;2023-09-18T03:21:20;21.20;99.90
41447;DHT22;27185;52.040;4.490;2023-09-18T03:24:06;21.10;99.90
41447;DHT22;27185;52.040;4.490;2023-09-18T03:26:52;21.10;99.90
41447;DHT22;27185;52.040;4.490;2023-09-18T03:29:39;21.10;99.90
41447;DHT22;27185;52.040;4.490;2023-09-18T03:32:25;21.10;99.90
41447;DHT22;27185;52.040;4.490;2023-09-18T03:35:12;21.10;99.90
41447;DHT22;27185;52.040;4.490;2023-09-18T03:38:04;21.10;99.90
41447;DHT22;27185;52.040;4.490;2023-09-18T03:40:49;21.10;99.90
41447;DHT22;27185;52.040;4.490;2023-09-18T03:43:35;21.10;99.90
41447;DHT22;27185;52.040;4.490;2023-09-18T03:46:21;21.20;99.90
41447;DHT22;27185;52.040;4.490;2023-09-18T03:49:06;21.10;99.90
41447;DHT22;27185;52.040;4.490;2023-09-18T03:51:53;21.10;99.90
41447;DHT22;27185;52.040;4.490;2023-09-18T03:54:38;21.20;99.90
41447;DHT22;27185;52.040;4.490;2023-09-18T03:57:24;21.30;99.90
41447;DHT22;27185;52.040;4.490;2023-09-18T04:00:19;21.20;99.90
41447;DHT22;27185;52.040;4.490;2023-09-18T04:03:08;21.30;99.90
41447;DHT22;27185;52.040;4.490;2023-09-18T04:05:54;21.30;99.90
41447;DHT22;27185;52.040;4.490;2023-09-18T04:08:40;21.30;99.90
41447;DHT22;27185;52.040;4.490;2023-09-18T04:11:25;21.30;99.90
41447;DHT22;27185;52.040;4.490;2023-09-18T04:14:11;21.30;99.90
41447;DHT22;27185;52.040;4.490;2023-09-18T04:17:06;21.30;99.90
41447;DHT22;27185;52.040;4.490;2023-09-18T04:19:51;21.30;99.90
41447;DHT22;27185;52.040;4.490;2023-09-18T04:22:43;21.30;99.90
41447;DHT22;27185;52.040;4.490;2023-09-18T04:25:43;21.40;99.90
41447;DHT22;27185;52.040;4.490;2023-09-18T04:28:41;21.40;99.90
41447;DHT22;27185;52.040;4.490;2023-09-18T04:31:33;21.40;99.90
41447;DHT22;27185;52.040;4.490;2023-09-18T04:34:23;21.40;99.90
41447;DHT22;27185;52.040;4.490;2023-09-18T04:37:12;21.40;99.90
41447;DHT22;27185;52.040;4.490;2023-09-18T04:40:05;21.40;99.90
41447;DHT22;27185;52.040;4.490;2023-09-18T04:42:56;21.30;99.90
41447;DHT22;27185;52.040;4.490;2023-09-18T04:45:44;21.30;99.90
41447;DHT22;27185;52.040;4.490;2023-09-18T04:48:29;21.30;99.90
41447;DHT22;27185;52.040;4.490;2023-09-18T04:51:15;21.30;99.90
41447;DHT22;27185;52.040;4.490;2023-09-18T04:54:01;21.30;99.90
41447;DHT22;27185;52.040;4.490;2023-09-18T04:56:47;21.40;99.90
41447;DHT22;27185;52.040;4.490;2023-09-18T04:59:32;21.30;99.90
41447;DHT22;27185;52.040;4.490;2023-09-18T05:02:21;21.30;99.90
41447;DHT22;27185;52.040;4.490;2023-09-18T05:05:13;21.30;99.90
41447;DHT22;27185;52.040;4.490;2023-09-18T05:08:00;21.30;99.90
41447;DHT22;27185;52.040;4.490;2023-09-18T05:10:52;21.30;99.90
41447;DHT22;27185;52.040;4.490;2023-09-18T05:13:45;21.30;99.90
41447;DHT22;27185;52.040;4.490;2023-09-18T05:16:31;21.40;99.90
41447;DHT22;27185;52.040;4.490;2023-09-18T05:19:20;21.30;99.90
41447;DHT22;27185;52.040;4.490;2023-09-18T05:22:11;21.30;99.90
41447;DHT22;27185;52.040;4.490;2023-09-18T05:28:00;21.30;99.90
41447;DHT22;27185;52.040;4.490;2023-09-18T05:30:55;21.40;99.90
41447;DHT22;27185;52.040;4.490;2023-09-18T05:33:40;21.40;99.90
41447;DHT22;27185;52.040;4.490;2023-09-18T05:36:27;21.40;99.90
41447;DHT22;27185;52.040;4.490;2023-09-18T05:39:13;21.40;99.90
41447;DHT22;27185;52.040;4.490;2023-09-18T05:41:58;21.40;99.90
41447;DHT22;27185;52.040;4.490;2023-09-18T05:44:44;21.40;99.90
41447;DHT22;27185;52.040;4.490;2023-09-18T05:47:32;21.40;99.90
41447;DHT22;27185;52.040;4.490;2023-09-18T05:50:17;21.50;99.90
41447;DHT22;27185;52.040;4.490;2023-09-18T05:53:03;21.50;99.90
41447;DHT22;27185;52.040;4.490;2023-09-18T05:55:49;21.50;99.90
41447;DHT22;27185;52.040;4.490;2023-09-18T05:58:34;21.50;99.90
41447;DHT22;27185;52.040;4.490;2023-09-18T06:01:21;21.50;99.90
41447;DHT22;27185;52.040;4.490;2023-09-18T06:04:07;21.50;99.90
41447;DHT22;27185;52.040;4.490;2023-09-18T06:06:52;21.50;99.90
41447;DHT22;27185;52.040;4.490;2023-09-18T06:09:38;21.50;99.90
41447;DHT22;27185;52.040;4.490;2023-09-18T06:12:24;21.50;99.90
41447;DHT22;27185;52.040;4.490;2023-09-18T06:15:13;21.50;99.90
41447;DHT22;27185;52.040;4.490;2023-09-18T06:17:59;21.50;99.90
41447;DHT22;27185;52.040;4.490;2023-09-18T06:20:45;21.50;99.90
41447;DHT22;27185;52.040;4.490;2023-09-18T06:23:31;21.50;99.90
41447;DHT22;27185;52.040;4.490;2023-09-18T06:26:18;21.50;99.90
41447;DHT22;27185;52.040;4.490;2023-09-18T06:29:03;21.50;99.90
41447;DHT22;27185;52.040;4.490;2023-09-18T06:31:50;21.40;99.90
41447;DHT22;27185;52.040;4.490;2023-09-18T06:34:36;21.40;99.90
41447;DHT22;27185;52.040;4.490;2023-09-18T06:37:21;21.40;99.90
41447;DHT22;27185;52.040;4.490;2023-09-18T06:40:08;21.40;99.90
41447;DHT22;27185;52.040;4.490;2023-09-18T06:42:58;21.40;99.90
41447;DHT22;27185;52.040;4.490;2023-09-18T06:45:45;21.40;99.90
41447;DHT22;27185;52.040;4.490;2023-09-18T06:48:30;21.40;99.90
41447;DHT22;27185;52.040;4.490;2023-09-18T06:51:17;21.40;99.90
41447;DHT22;27185;52.040;4.490;2023-09-18T06:54:03;21.40;99.90
41447;DHT22;27185;52.040;4.490;2023-09-18T06:56:49;21.40;99.90
41447;DHT22;27185;52.040;4.490;2023-09-18T06:59:34;21.40;99.90
41447;DHT22;27185;52.040;4.490;2023-09-18T07:02:20;21.40;99.90
41447;DHT22;27185;52.040;4.490;2023-09-18T07:05:05;21.40;99.90
41447;DHT22;27185;52.040;4.490;2023-09-18T07:07:51;21.40;99.90
41447;DHT22;27185;52.040;4.490;2023-09-18T07:10:37;21.40;99.90
41447;DHT22;27185;52.040;4.490;2023-09-18T07:13:23;21.30;99.90
41447;DHT22;27185;52.040;4.490;2023-09-18T07:16:09;21.30;99.90
41447;DHT22;27185;52.040;4.490;2023-09-18T07:18:55;21.20;99.90
41447;DHT22;27185;52.040;4.490;2023-09-18T07:21:40;21.30;99.90
41447;DHT22;27185;52.040;4.490;2023-09-18T07:24:26;21.20;99.90
41447;DHT22;27185;52.040;4.490;2023-09-18T07:27:12;21.20;99.90
41447;DHT22;27185;52.040;4.490;2023-09-18T07:29:58;21.30;99.90
41447;DHT22;27185;52.040;4.490;2023-09-18T07:32:44;21.30;99.90
41447;DHT22;27185;52.040;4.490;2023-09-18T07:35:29;21.20;99.90
41447;DHT22;27185;52.040;4.490;2023-09-18T07:38:15;21.20;99.90
41447;DHT22;27185;52.040;4.490;2023-09-18T07:41:00;21.20;99.90
41447;DHT22;27185;52.040;4.490;2023-09-18T07:43:46;21.20;99.90
41447;DHT22;27185;52.040;4.490;2023-09-18T07:46:31;21.20;99.90
41447;DHT22;27185;52.040;4.490;2023-09-18T07:49:17;21.20;99.90
41447;DHT22;27185;52.040;4.490;2023-09-18T07:52:03;21.20;99.90
41447;DHT22;27185;52.040;4.490;2023-09-18T07:54:48;21.20;99.90
41447;DHT22;27185;52.040;4.490;2023-09-18T07:57:34;21.30;99.90
41447;DHT22;27185;52.040;4.490;2023-09-18T08:00:20;21.20;99.90
41447;DHT22;27185;52.040;4.490;2023-09-18T08:03:07;21.20;99.90
41447;DHT22;27185;52.040;4.490;2023-09-18T08:05:53;21.30;99.90
41447;DHT22;27185;52.040;4.490;2023-09-18T08:08:39;21.40;99.90
41447;DHT22;27185;52.040;4.490;2023-09-18T08:11:25;21.40;99.90
41447;DHT22;27185;52.040;4.490;2023-09-18T08:14:10;21.40;99.90
41447;DHT22;27185;52.040;4.490;2023-09-18T08:16:57;21.40;99.90
41447;DHT22;27185;52.040;4.490;2023-09-18T08:19:43;21.50;99.90
41447;DHT22;27185;52.040;4.490;2023-09-18T08:22:31;21.60;99.90
41447;DHT22;27185;52.040;4.490;2023-09-18T08:25:17;21.60;99.90
41447;DHT22;27185;52.040;4.490;2023-09-18T08:28:03;21.70;99.90
41447;DHT22;27185;52.040;4.490;2023-09-18T08:30:49;21.80;99.90
41447;DHT22;27185;52.040;4.490;2023-09-18T08:33:35;21.80;99.90
41447;DHT22;27185;52.040;4.490;2023-09-18T08:36:21;21.80;99.90
41447;DHT22;27185;52.040;4.490;2023-09-18T08:39:07;21.90;99.90
41447;DHT22;27185;52.040;4.490;2023-09-18T08:41:59;22.00;99.90
41447;DHT22;27185;52.040;4.490;2023-09-18T08:44:48;22.20;99.90
41447;DHT22;27185;52.040;4.490;2023-09-18T08:47:34;22.20;99.90
41447;DHT22;27185;52.040;4.490;2023-09-18T08:50:21;22.30;99.90
41447;DHT22;27185;52.040;4.490;2023-09-18T08:53:08;22.30;99.90
41447;DHT22;27185;52.040;4.490;2023-09-18T08:55:53;22.30;99.90
41447;DHT22;27185;52.040;4.490;2023-09-18T08:58:43;22.40;99.90
41447;DHT22;27185;52.040;4.490;2023-09-18T09:01:29;22.40;99.90
41447;DHT22;27185;52.040;4.490;2023-09-18T09:04:15;22.40;99.90
41447;DHT22;27185;52.040;4.490;2023-09-18T09:07:00;22.50;99.90
41447;DHT22;27185;52.040;4.490;2023-09-18T09:09:47;22.50;99.90
41447;DHT22;27185;52.040;4.490;2023-09-18T09:15:47;22.50;99.90
41447;DHT22;27185;52.040;4.490;2023-09-18T09:18:35;22.50;99.90
41447;DHT22;27185;52.040;4.490;2023-09-18T09:21:20;22.50;99.90
41447;DHT22;27185;52.040;4.490;2023-09-18T09:24:06;22.50;99.90
41447;DHT22;27185;52.040;4.490;2023-09-18T09:26:58;22.60;99.90
41447;DHT22;27185;52.040;4.490;2023-09-18T09:29:58;22.60;99.90
41447;DHT22;27185;52.040;4.490;2023-09-18T09:32:47;22.60;99.90
41447;DHT22;27185;52.040;4.490;2023-09-18T09:35:35;22.70;99.90
41447;DHT22;27185;52.040;4.490;2023-09-18T09:38:22;22.60;99.90
41447;DHT22;27185;52.040;4.490;2023-09-18T09:41:16;22.70;99.90
41447;DHT22;27185;52.040;4.490;2023-09-18T09:44:05;22.80;99.90
41447;DHT22;27185;52.040;4.490;2023-09-18T09:46:51;22.80;99.90
41447;DHT22;27185;52.040;4.490;2023-09-18T09:49:47;22.90;99.90
41447;DHT22;27185;52.040;4.490;2023-09-18T09:52:33;22.90;99.90
41447;DHT22;27185;52.040;4.490;2023-09-18T09:55:33;23.00;99.90
41447;DHT22;27185;52.040;4.490;2023-09-18T09:58:26;23.10;99.90
41447;DHT22;27185;52.040;4.490;2023-09-18T10:01:16;23.30;99.90
41447;DHT22;27185;52.040;4.490;2023-09-18T10:04:13;23.30;99.90
41447;DHT22;27185;52.040;4.490;2023-09-18T10:07:06;23.40;99.90
41447;DHT22;27185;52.040;4.490;2023-09-18T10:09:52;23.40;99.90
41447;DHT22;27185;52.040;4.490;2023-09-18T10:12:39;23.30;99.90
41447;DHT22;27185;52.040;4.490;2023-09-18T10:15:25;23.40;99.90
41447;DHT22;27185;52.040;4.490;2023-09-18T10:18:38;23.60;99.90
41447;DHT22;27185;52.040;4.490;2023-09-18T10:24:24;23.60;99.90
41447;DHT22;27185;52.040;4.490;2023-09-18T10:27:12;23.60;99.90
41447;DHT22;27185;52.040;4.490;2023-09-18T10:30:00;23.60;99.90
41447;DHT22;27185;52.040;4.490;2023-09-18T10:32:51;23.60;99.90
41447;DHT22;27185;52.040;4.490;2023-09-18T10:35:41;23.60;99.90
41447;DHT22;27185;52.040;4.490;2023-09-18T10:38:27;23.70;99.90
41447;DHT22;27185;52.040;4.490;2023-09-18T10:41:15;23.80;99.90
41447;DHT22;27185;52.040;4.490;2023-09-18T10:44:03;23.80;99.90
41447;DHT22;27185;52.040;4.490;2023-09-18T10:46:51;23.90;99.90
41447;DHT22;27185;52.040;4.490;2023-09-18T10:49:39;24.00;99.90
41447;DHT22;27185;52.040;4.490;2023-09-18T10:52:25;24.30;99.90
41447;DHT22;27185;52.040;4.490;2023-09-18T10:55:12;24.70;99.90
41447;DHT22;27185;52.040;4.490;2023-09-18T10:57:59;25.00;99.90
41447;DHT22;27185;52.040;4.490;2023-09-18T11:00:47;25.30;99.90
41447;DHT22;27185;52.040;4.490;2023-09-18T11:03:34;25.60;99.80
41447;DHT22;27185;52.040;4.490;2023-09-18T11:06:19;25.80;99.70
41447;DHT22;27185;52.040;4.490;2023-09-18T11:09:29;25.90;99.70
41447;DHT22;27185;52.040;4.490;2023-09-18T11:12:16;25.90;98.70
41447;DHT22;27185;52.040;4.490;2023-09-18T11:15:03;25.90;97.80
41447;DHT22;27185;52.040;4.490;2023-09-18T11:17:59;26.00;98.80
41447;DHT22;27185;52.040;4.490;2023-09-18T11:21:11;26.00;97.60
41447;DHT22;27185;52.040;4.490;2023-09-18T11:24:06;26.10;98.30
41447;DHT22;27185;52.040;4.490;2023-09-18T11:26:52;26.10;97.60
41447;DHT22;27185;52.040;4.490;2023-09-18T11:29:37;26.10;98.20
41447;DHT22;27185;52.040;4.490;2023-09-18T11:32:39;26.20;98.50
41447;DHT22;27185;52.040;4.490;2023-09-18T11:35:26;26.10;96.30
41447;DHT22;27185;52.040;4.490;2023-09-18T11:38:11;26.10;98.40
41447;DHT22;27185;52.040;4.490;2023-09-18T11:40:57;26.10;98.40
41447;DHT22;27185;52.040;4.490;2023-09-18T11:43:44;26.20;98.30
41447;DHT22;27185;52.040;4.490;2023-09-18T11:46:30;26.20;97.80
41447;DHT22;27185;52.040;4.490;2023-09-18T11:49:20;26.10;97.60
41447;DHT22;27185;52.040;4.490;2023-09-18T11:52:07;26.20;98.10
41447;DHT22;27185;52.040;4.490;2023-09-18T11:54:56;26.10;97.80
41447;DHT22;27185;52.040;4.490;2023-09-18T11:57:43;26.10;97.40
41447;DHT22;27185;52.040;4.490;2023-09-18T12:00:31;26.10;97.40
41447;DHT22;27185;52.040;4.490;2023-09-18T12:03:22;25.90;97.70
41447;DHT22;27185;52.040;4.490;2023-09-18T12:06:11;25.80;97.90
41447;DHT22;27185;52.040;4.490;2023-09-18T12:09:02;25.70;98.30
41447;DHT22;27185;52.040;4.490;2023-09-18T12:11:49;25.70;98.50
41447;DHT22;27185;52.040;4.490;2023-09-18T12:14:36;25.70;98.50
41447;DHT22;27185;52.040;4.490;2023-09-18T12:17:22;25.70;98.30
41447;DHT22;27185;52.040;4.490;2023-09-18T12:20:17;25.70;98.00
41447;DHT22;27185;52.040;4.490;2023-09-18T12:23:06;25.60;97.40
41447;DHT22;27185;52.040;4.490;2023-09-18T12:25:59;25.70;97.50
41447;DHT22;27185;52.040;4.490;2023-09-18T12:28:45;25.70;97.40
41447;DHT22;27185;52.040;4.490;2023-09-18T12:31:31;25.60;98.00
41447;DHT22;27185;52.040;4.490;2023-09-18T12:34:18;25.70;98.50
41447;DHT22;27185;52.040;4.490;2023-09-18T12:37:06;25.80;98.50
41447;DHT22;27185;52.040;4.490;2023-09-18T12:39:53;25.70;98.20
41447;DHT22;27185;52.040;4.490;2023-09-18T12:42:39;25.80;99.10
41447;DHT22;27185;52.040;4.490;2023-09-18T12:45:26;26.00;98.70
41447;DHT22;27185;52.040;4.490;2023-09-18T12:48:13;26.10;98.90
41447;DHT22;27185;52.040;4.490;2023-09-18T12:51:03;26.30;98.40
41447;DHT22;27185;52.040;4.490;2023-09-18T12:53:59;26.30;97.90
41447;DHT22;27185;52.040;4.490;2023-09-18T12:56:46;26.30;97.60
41447;DHT22;27185;52.040;4.490;2023-09-18T12:59:36;26.40;98.30
41447;DHT22;27185;52.040;4.490;2023-09-18T13:02:23;26.50;97.60
41447;DHT22;27185;52.040;4.490;2023-09-18T13:05:08;26.70;97.80
41447;DHT22;27185;52.040;4.490;2023-09-18T13:07:54;26.80;97.00
41447;DHT22;27185;52.040;4.490;2023-09-18T13:10:45;26.90;96.60
41447;DHT22;27185;52.040;4.490;2023-09-18T13:13:31;27.00;96.20
41447;DHT22;27185;52.040;4.490;2023-09-18T13:16:17;27.10;96.60
41447;DHT22;27185;52.040;4.490;2023-09-18T13:19:04;27.20;96.50
41447;DHT22;27185;52.040;4.490;2023-09-18T13:21:50;27.40;96.90
41447;DHT22;27185;52.040;4.490;2023-09-18T13:24:35;27.60;96.50
41447;DHT22;27185;52.040;4.490;2023-09-18T13:27:22;27.80;96.30
41447;DHT22;27185;52.040;4.490;2023-09-18T13:30:09;27.80;95.10
41447;DHT22;27185;52.040;4.490;2023-09-18T13:33:02;27.90;95.20
41447;DHT22;27185;52.040;4.490;2023-09-18T13:35:49;27.90;93.90
41447;DHT22;27185;52.040;4.490;2023-09-18T13:38:35;27.80;94.80
41447;DHT22;27185;52.040;4.490;2023-09-18T13:41:21;27.60;95.10
41447;DHT22;27185;52.040;4.490;2023-09-18T13:44:06;27.30;94.80
41447;DHT22;27185;52.040;4.490;2023-09-18T13:46:52;26.80;94.90
41447;DHT22;27185;52.040;4.490;2023-09-18T13:49:38;26.50;95.30
41447;DHT22;27185;52.040;4.490;2023-09-18T13:52:24;26.20;95.70
41447;DHT22;27185;52.040;4.490;2023-09-18T13:55:09;25.90;96.10
41447;DHT22;27185;52.040;4.490;2023-09-18T13:57:55;25.60;96.10
41447;DHT22;27185;52.040;4.490;2023-09-18T14:00:41;25.40;96.10
41447;DHT22;27185;52.040;4.490;2023-09-18T14:03:28;25.10;96.60
41447;DHT22;27185;52.040;4.490;2023-09-18T14:06:14;25.00;96.60
41447;DHT22;27185;52.040;4.490;2023-09-18T14:08:59;24.80;97.20
41447;DHT22;27185;52.040;4.490;2023-09-18T14:11:45;24.70;97.60
41447;DHT22;27185;52.040;4.490;2023-09-18T14:14:31;24.50;98.20
41447;DHT22;27185;52.040;4.490;2023-09-18T14:17:18;24.20;99.00
41447;DHT22;27185;52.040;4.490;2023-09-18T14:20:07;23.90;99.90
41447;DHT22;27185;52.040;4.490;2023-09-18T14:22:54;23.50;99.90
41447;DHT22;27185;52.040;4.490;2023-09-18T14:25:40;22.90;99.90
41447;DHT22;27185;52.040;4.490;2023-09-18T14:28:26;22.30;99.90
41447;DHT22;27185;52.040;4.490;2023-09-18T14:31:13;21.80;99.90
41447;DHT22;27185;52.040;4.490;2023-09-18T14:33:58;21.40;99.90
41447;DHT22;27185;52.040;4.490;2023-09-18T14:36:45;21.00;99.90
41447;DHT22;27185;52.040;4.490;2023-09-18T14:39:31;20.70;99.90
41447;DHT22;27185;52.040;4.490;2023-09-18T14:42:17;20.50;99.90
41447;DHT22;27185;52.040;4.490;2023-09-18T14:45:03;20.40;99.90
41447;DHT22;27185;52.040;4.490;2023-09-18T14:47:49;20.40;99.90
41447;DHT22;27185;52.040;4.490;2023-09-18T14:50:35;20.30;99.90
41447;DHT22;27185;52.040;4.490;2023-09-18T14:53:22;20.30;99.90
41447;DHT22;27185;52.040;4.490;2023-09-18T14:56:08;20.30;99.90
41447;DHT22;27185;52.040;4.490;2023-09-18T14:58:53;20.20;99.90
41447;DHT22;27185;52.040;4.490;2023-09-18T15:01:40;20.20;99.90
41447;DHT22;27185;52.040;4.490;2023-09-18T15:04:28;20.20;99.90
41447;DHT22;27185;52.040;4.490;2023-09-18T15:07:13;20.20;99.90
41447;DHT22;27185;52.040;4.490;2023-09-18T15:09:59;20.30;99.90
41447;DHT22;27185;52.040;4.490;2023-09-18T15:12:44;20.50;99.90
41447;DHT22;27185;52.040;4.490;2023-09-18T15:15:30;20.80;99.90
41447;DHT22;27185;52.040;4.490;2023-09-18T15:18:16;21.10;99.90
41447;DHT22;27185;52.040;4.490;2023-09-18T15:21:02;21.30;99.90
41447;DHT22;27185;52.040;4.490;2023-09-18T15:23:48;21.60;99.90
41447;DHT22;27185;52.040;4.490;2023-09-18T15:26:35;21.90;99.90
41447;DHT22;27185;52.040;4.490;2023-09-18T15:29:21;22.20;99.90
41447;DHT22;27185;52.040;4.490;2023-09-18T15:32:07;22.50;99.90
41447;DHT22;27185;52.040;4.490;2023-09-18T15:34:53;22.70;99.90
41447;DHT22;27185;52.040;4.490;2023-09-18T15:37:39;22.80;99.90
41447;DHT22;27185;52.040;4.490;2023-09-18T15:40:25;22.80;99.90
41447;DHT22;27185;52.040;4.490;2023-09-18T15:43:11;22.80;99.90
41447;DHT22;27185;52.040;4.490;2023-09-18T15:45:57;22.80;99.90
41447;DHT22;27185;52.040;4.490;2023-09-18T15:48:44;22.80;99.90
41447;DHT22;27185;52.040;4.490;2023-09-18T15:51:30;22.70;99.90
41447;DHT22;27185;52.040;4.490;2023-09-18T15:54:16;22.60;99.90
41447;DHT22;27185;52.040;4.490;2023-09-18T15:57:02;22.40;99.90
41447;DHT22;27185;52.040;4.490;2023-09-18T15:59:47;22.20;99.90
41447;DHT22;27185;52.040;4.490;2023-09-18T16:02:33;22.10;99.90
41447;DHT22;27185;52.040;4.490;2023-09-18T16:05:19;21.90;99.90
41447;DHT22;27185;52.040;4.490;2023-09-18T16:08:10;21.70;99.90
41447;DHT22;27185;52.040;4.490;2023-09-18T16:10:57;21.70;99.90
41447;DHT22;27185;52.040;4.490;2023-09-18T16:13:42;21.50;99.90
41447;DHT22;27185;52.040;4.490;2023-09-18T16:16:28;21.50;99.90
41447;DHT22;27185;52.040;4.490;2023-09-18T16:19:14;21.30;99.90
41447;DHT22;27185;52.040;4.490;2023-09-18T16:22:00;21.20;99.90
41447;DHT22;27185;52.040;4.490;2023-09-18T16:24:45;21.00;99.90
41447;DHT22;27185;52.040;4.490;2023-09-18T16:27:31;20.90;99.90
41447;DHT22;27185;52.040;4.490;2023-09-18T16:30:17;20.90;99.90
41447;DHT22;27185;52.040;4.490;2023-09-18T16:33:02;20.80;99.90
41447;DHT22;27185;52.040;4.490;2023-09-18T16:35:48;20.80;99.90
41447;DHT22;27185;52.040;4.490;2023-09-18T16:38:34;20.70;99.90
41447;DHT22;27185;52.040;4.490;2023-09-18T16:41:27;20.70;99.90
41447;DHT22;27185;52.040;4.490;2023-09-18T16:44:12;20.70;99.90
41447;DHT22;27185;52.040;4.490;2023-09-18T16:46:58;20.70;99.90
41447;DHT22;27185;52.040;4.490;2023-09-18T16:49:44;20.70;99.90
41447;DHT22;27185;52.040;4.490;2023-09-18T16:52:30;20.60;99.90
41447;DHT22;27185;52.040;4.490;2023-09-18T16:55:15;20.60;99.90
41447;DHT22;27185;52.040;4.490;2023-09-18T16:58:01;20.60;99.90
41447;DHT22;27185;52.040;4.490;2023-09-18T17:00:47;20.60;99.90
41447;DHT22;27185;52.040;4.490;2023-09-18T17:03:32;20.60;99.90
41447;DHT22;27185;52.040;4.490;2023-09-18T17:06:18;20.60;99.90
41447;DHT22;27185;52.040;4.490;2023-09-18T17:09:05;20.70;99.90
41447;DHT22;27185;52.040;4.490;2023-09-18T17:11:51;20.70;99.90
41447;DHT22;27185;52.040;4.490;2023-09-18T17:14:37;20.60;99.90
41447;DHT22;27185;52.040;4.490;2023-09-18T17:17:23;20.60;99.90
41447;DHT22;27185;52.040;4.490;2023-09-18T17:20:08;20.60;99.90
41447;DHT22;27185;52.040;4.490;2023-09-18T17:22:55;20.60;99.90
41447;DHT22;27185;52.040;4.490;2023-09-18T17:25:41;20.60;99.90
41447;DHT22;27185;52.040;4.490;2023-09-18T17:28:26;20.60;99.90
41447;DHT22;27185;52.040;4.490;2023-09-18T17:31:12;20.70;99.90
41447;DHT22;27185;52.040;4.490;2023-09-18T17:33:58;20.80;99.90
41447;DHT22;27185;52.040;4.490;2023-09-18T17:36:43;20.90;99.90
41447;DHT22;27185;52.040;4.490;2023-09-18T17:39:29;20.90;99.90
41447;DHT22;27185;52.040;4.490;2023-09-18T17:42:14;21.00;99.90
41447;DHT22;27185;52.040;4.490;2023-09-18T17:45:00;21.00;99.90